createdAt,value
2019-03-01T00:01:08.018Z,96.40
2019-03-01T00:03:37.654Z,96.40
2019-03-01T00:06:23.869Z,96.60
2019-03-01T00:09:16.356Z,96.80
2019-03-01T00:12:45.462Z,97.00
2019-03-01T00:15:54.447Z,97.10
2019-03-01T00:18:59.241Z,97.40
2019-03-01T00:22:10.212Z,97.40
2019-03-01T00:25:25.527Z,97.70
2019-03-01T00:28:20.961Z,98.00
2019-03-01T00:31:08.829Z,98.40
2019-03-01T00:34:26.134Z,98.20
2019-03-01T00:37:36.942Z,98.50
2019-03-01T00:40:37.804Z,98.60
2019-03-01T00:43:38.097Z,98.70
2019-03-01T00:46:08.498Z,98.80
2019-03-01T00:48:38.579Z,98.70
2019-03-01T00:51:08.239Z,98.90
2019-03-01T00:53:38.220Z,99.00
2019-03-01T00:56:10.726Z,99.00
2019-03-01T00:58:40.915Z,99.20
2019-03-01T01:01:11.668Z,99.20
2019-03-01T01:03:41.653Z,99.50
2019-03-01T01:06:13.380Z,99.70
2019-03-01T01:08:43.643Z,99.70
2019-03-01T01:11:13.817Z,99.90
2019-03-01T01:13:43.846Z,99.90
2019-03-01T01:16:16.083Z,99.90
2019-03-01T01:18:48.172Z,99.90
2019-03-01T01:21:17.940Z,99.90
2019-03-01T01:23:49.768Z,99.90
2019-03-01T01:26:21.138Z,99.90
2019-03-01T01:28:51.159Z,99.90
2019-03-01T01:31:21.375Z,99.90
2019-03-01T01:33:50.974Z,99.90
2019-03-01T01:36:21.502Z,99.90
2019-03-01T01:38:53.753Z,99.90
2019-03-01T01:41:23.739Z,99.90
2019-03-01T01:43:56.247Z,99.90
2019-03-01T01:46:25.782Z,99.90
2019-03-01T01:48:55.704Z,99.90
2019-03-01T01:51:27.696Z,99.90
2019-03-01T01:53:58.683Z,99.90
2019-03-01T01:56:32.393Z,99.90
2019-03-01T01:59:02.240Z,99.90
2019-03-01T02:01:31.831Z,99.90
2019-03-01T02:04:03.920Z,99.90
2019-03-01T02:06:33.461Z,99.90
2019-03-01T02:09:03.535Z,99.90
2019-03-01T02:11:33.072Z,99.90
2019-03-01T02:14:03.288Z,99.90
2019-03-01T02:16:32.962Z,99.90
2019-03-01T02:19:03.795Z,99.90
2019-03-01T02:21:34.999Z,99.90
2019-03-01T02:24:07.255Z,99.90
2019-03-01T02:26:37.247Z,99.90
2019-03-01T02:29:07.759Z,99.90
2019-03-01T02:31:38.697Z,99.90
2019-03-01T02:34:08.296Z,99.90
2019-03-01T02:36:38.564Z,99.90
2019-03-01T02:39:08.522Z,99.90
2019-03-01T02:41:38.595Z,99.90
2019-03-01T02:44:09.854Z,99.90
2019-03-01T02:46:41.267Z,99.90
2019-03-01T02:49:14.423Z,99.90
2019-03-01T02:51:46.085Z,99.90
2019-03-01T02:54:16.228Z,99.90
2019-03-01T02:56:46.750Z,99.90
2019-03-01T02:59:17.045Z,99.90
2019-03-01T03:01:47.245Z,99.90
2019-03-01T03:04:18.579Z,99.90
2019-03-01T03:07:06.321Z,99.90
2019-03-01T03:09:36.381Z,99.90
2019-03-01T03:12:06.943Z,99.90
2019-03-01T03:14:36.992Z,99.90
2019-03-01T03:17:07.818Z,99.90
2019-03-01T03:19:37.727Z,99.90
2019-03-01T03:22:09.297Z,99.90
2019-03-01T03:24:38.640Z,99.90
2019-03-01T03:27:08.845Z,99.90
2019-03-01T03:29:38.946Z,99.90
2019-03-01T03:32:08.819Z,99.90
2019-03-01T03:34:39.540Z,99.90
2019-03-01T03:37:11.108Z,99.90
2019-03-01T03:39:42.563Z,99.90
2019-03-01T03:42:12.379Z,99.90
2019-03-01T03:44:42.636Z,99.90
2019-03-01T03:47:12.723Z,99.90
2019-03-01T03:49:45.222Z,99.90
2019-03-01T03:52:15.313Z,99.90
2019-03-01T03:54:45.915Z,99.90
2019-03-01T03:57:15.479Z,99.90
2019-03-01T03:59:46.085Z,99.90
2019-03-01T04:02:18.060Z,99.90
2019-03-01T04:04:47.748Z,99.90
2019-03-01T04:07:17.964Z,99.90
2019-03-01T04:09:48.157Z,99.90
2019-03-01T04:12:20.662Z,99.90
2019-03-01T04:14:50.659Z,99.90
2019-03-01T04:17:22.063Z,99.90
2019-03-01T04:19:52.248Z,99.90
2019-03-01T04:22:21.995Z,99.90
2019-03-01T04:24:53.582Z,99.90
2019-03-01T04:27:24.387Z,99.90
2019-03-01T04:29:55.975Z,99.90
2019-03-01T04:32:26.651Z,99.90
2019-03-01T04:34:56.774Z,99.90
2019-03-01T04:37:26.728Z,99.90
2019-03-01T04:39:58.162Z,99.90
2019-03-01T04:42:28.221Z,99.90
2019-03-01T04:44:58.689Z,99.90
2019-03-01T04:47:28.290Z,99.90
2019-03-01T04:50:00.899Z,99.90
2019-03-01T04:52:38.638Z,99.90
2019-03-01T04:55:11.360Z,99.90
2019-03-01T04:57:42.133Z,99.90
2019-03-01T05:00:15.483Z,99.90
2019-03-01T05:02:47.159Z,99.90
2019-03-01T05:05:19.226Z,99.90
2019-03-01T05:07:48.931Z,99.90
2019-03-01T05:10:18.847Z,99.90
2019-03-01T05:12:48.964Z,99.90
2019-03-01T05:15:22.120Z,99.90
2019-03-01T05:17:52.154Z,99.90
2019-03-01T05:20:23.638Z,99.90
2019-03-01T05:22:53.609Z,99.90
2019-03-01T05:25:26.230Z,99.90
2019-03-01T05:27:57.979Z,99.90
2019-03-01T05:30:28.441Z,99.90
2019-03-01T05:33:01.932Z,99.90
2019-03-01T05:35:32.100Z,99.90
2019-03-01T05:38:02.826Z,99.90
2019-03-01T05:40:32.445Z,99.90
2019-03-01T05:43:08.533Z,99.90
2019-03-01T05:45:35.418Z,99.90
2019-03-01T05:48:07.358Z,99.90
2019-03-01T05:50:37.847Z,99.90
2019-03-01T05:53:07.568Z,99.90
2019-03-01T05:55:38.530Z,99.90
2019-03-01T05:58:30.010Z,99.90
2019-03-01T06:01:12.839Z,99.90
2019-03-01T06:04:19.711Z,99.90
2019-03-01T06:07:29.865Z,99.90
2019-03-01T06:10:32.902Z,99.90
2019-03-01T06:13:39.828Z,99.90
2019-03-01T06:16:34.825Z,99.90
2019-03-01T06:19:19.580Z,99.90
2019-03-01T06:22:35.494Z,99.90
2019-03-01T06:25:28.756Z,99.90
2019-03-01T06:28:20.245Z,99.90
2019-03-01T06:31:07.477Z,99.90
2019-03-01T06:33:59.903Z,99.90
2019-03-01T06:36:56.077Z,99.90
2019-03-01T06:40:23.436Z,99.90
2019-03-01T06:43:19.713Z,99.90
2019-03-01T06:46:26.088Z,99.70
2019-03-01T06:49:10.697Z,99.50
2019-03-01T06:51:40.628Z,99.50
2019-03-01T06:54:11.862Z,99.40
2019-03-01T06:56:44.627Z,99.20
2019-03-01T06:59:16.303Z,99.10
2019-03-01T07:01:48.490Z,98.50
2019-03-01T07:04:20.595Z,98.50
2019-03-01T07:06:51.531Z,98.50
2019-03-01T07:09:23.217Z,98.60
2019-03-01T07:11:54.192Z,98.60
2019-03-01T07:14:25.419Z,98.60
2019-03-01T07:16:58.290Z,98.40
2019-03-01T07:19:27.998Z,98.10
2019-03-01T07:21:59.175Z,97.90
2019-03-01T07:24:29.404Z,97.90
2019-03-01T07:27:00.328Z,97.70
2019-03-01T07:29:30.430Z,97.10
2019-03-01T07:32:00.146Z,97.70
2019-03-01T07:34:30.052Z,97.00
2019-03-01T07:37:01.664Z,97.30
2019-03-01T07:39:33.173Z,96.90
2019-03-01T07:42:05.604Z,97.00
2019-03-01T07:44:38.511Z,96.70
2019-03-01T07:47:10.371Z,96.90
2019-03-01T07:49:45.985Z,97.00
2019-03-01T07:52:16.153Z,96.50
2019-03-01T07:54:49.459Z,96.40
2019-03-01T07:57:18.446Z,96.50
2019-03-01T07:59:49.174Z,95.80
2019-03-01T08:02:20.946Z,95.70
2019-03-01T08:04:51.699Z,95.70
2019-03-01T08:07:23.610Z,95.90
2019-03-01T08:09:56.082Z,95.90
2019-03-01T08:12:26.378Z,96.20
2019-03-01T08:14:56.598Z,95.90
2019-03-01T08:17:31.589Z,96.20
2019-03-01T08:20:01.310Z,96.00
2019-03-01T08:22:40.843Z,95.60
2019-03-01T08:25:09.240Z,95.90
2019-03-01T08:27:42.031Z,95.80
2019-03-01T08:30:16.838Z,95.50
2019-03-01T08:32:47.291Z,95.50
2019-03-01T08:35:16.832Z,95.30
2019-03-01T08:37:49.777Z,95.00
2019-03-01T08:40:19.300Z,94.10
2019-03-01T08:42:51.169Z,94.20
2019-03-01T08:45:21.108Z,94.10
2019-03-01T08:47:50.788Z,94.00
2019-03-01T08:50:21.090Z,93.80
2019-03-01T08:52:54.004Z,93.80
2019-03-01T08:55:26.088Z,94.00
2019-03-01T08:57:59.420Z,93.70
2019-03-01T09:00:30.713Z,93.80
2019-03-01T09:03:04.982Z,93.50
2019-03-01T09:05:35.225Z,94.10
2019-03-01T09:08:08.777Z,93.60
2019-03-01T09:10:39.009Z,93.70
2019-03-01T09:13:09.425Z,92.70
2019-03-01T09:15:39.982Z,92.70
2019-03-01T09:18:11.567Z,93.40
2019-03-01T09:20:41.584Z,93.20
2019-03-01T09:23:22.880Z,92.70
2019-03-01T09:25:44.664Z,92.60
2019-03-01T09:28:17.836Z,93.10
2019-03-01T09:30:50.594Z,92.10
2019-03-01T09:33:42.232Z,91.30
2019-03-01T09:36:38.157Z,91.30
2019-03-01T09:39:10.177Z,91.50
2019-03-01T09:41:41.525Z,90.90
2019-03-01T09:44:11.743Z,91.40
2019-03-01T09:46:42.222Z,91.10
2019-03-01T09:49:12.806Z,91.10
2019-03-01T09:51:49.185Z,91.10
2019-03-01T09:54:20.363Z,91.20
2019-03-01T09:56:50.015Z,90.70
2019-03-01T09:59:28.768Z,90.20
2019-03-01T10:01:59.053Z,90.00
2019-03-01T10:04:30.984Z,90.70
2019-03-01T10:07:06.938Z,89.00
2019-03-01T10:09:40.955Z,90.00
2019-03-01T10:12:12.143Z,84.70
2019-03-01T10:14:44.517Z,84.20
2019-03-01T10:17:20.375Z,85.80
2019-03-01T10:19:51.207Z,83.90
2019-03-01T10:22:24.455Z,79.70
2019-03-01T10:24:55.434Z,78.70
2019-03-01T10:27:27.943Z,81.40
2019-03-01T10:30:02.855Z,83.00
2019-03-01T10:32:34.615Z,81.90
2019-03-01T10:35:06.114Z,80.00
2019-03-01T10:37:36.926Z,77.60
2019-03-01T10:40:11.066Z,80.30
2019-03-01T10:42:41.112Z,81.30
2019-03-01T10:45:20.905Z,80.90
2019-03-01T10:47:52.875Z,73.40
2019-03-01T10:50:25.864Z,76.60
2019-03-01T10:52:56.406Z,79.50
2019-03-01T10:55:29.739Z,80.30
2019-03-01T10:58:01.639Z,78.80
2019-03-01T11:00:31.898Z,78.50
2019-03-01T11:03:02.250Z,74.40
2019-03-01T11:05:35.540Z,71.90
2019-03-01T11:08:05.475Z,80.70
2019-03-01T11:10:36.887Z,79.80
2019-03-01T11:13:08.034Z,75.40
2019-03-01T11:15:40.932Z,76.00
2019-03-01T11:18:12.679Z,75.70
2019-03-01T11:20:43.884Z,74.60
2019-03-01T11:23:27.338Z,73.60
2019-03-01T11:26:07.888Z,73.70
2019-03-01T11:31:44.810Z,73.50
2019-03-01T11:34:15.701Z,71.90
2019-03-01T11:36:46.868Z,73.70
2019-03-01T11:39:38.672Z,73.50
2019-03-01T11:42:08.546Z,73.60
2019-03-01T11:44:48.566Z,73.00
2019-03-01T11:47:21.301Z,72.10
2019-03-01T11:50:27.587Z,72.80
2019-03-01T11:53:10.954Z,74.20
2019-03-01T11:55:42.549Z,75.40
2019-03-01T11:58:12.725Z,74.80
2019-03-01T12:00:52.101Z,74.30
2019-03-01T12:03:18.738Z,73.40
2019-03-01T12:05:48.303Z,72.80
2019-03-01T12:08:19.019Z,71.70
2019-03-01T12:10:49.233Z,73.90
2019-03-01T12:13:20.771Z,74.60
2019-03-01T12:15:52.453Z,75.30
2019-03-01T12:18:25.619Z,74.90
2019-03-01T12:20:57.081Z,73.70
2019-03-01T12:23:27.169Z,73.00
2019-03-01T12:25:59.616Z,70.90
2019-03-01T12:28:31.847Z,70.50
2019-03-01T12:31:02.722Z,71.20
2019-03-01T12:33:33.278Z,72.70
2019-03-01T12:36:09.688Z,74.00
2019-03-01T12:38:46.885Z,75.20
2019-03-01T12:41:18.044Z,75.30
2019-03-01T12:43:56.736Z,75.60
2019-03-01T12:46:30.337Z,74.30
2019-03-01T12:49:01.679Z,74.50
2019-03-01T12:51:33.004Z,75.40
2019-03-01T12:54:08.397Z,75.10
2019-03-01T12:56:39.206Z,75.30
2019-03-01T12:59:12.148Z,75.30
2019-03-01T13:01:44.078Z,74.00
2019-03-01T13:04:15.606Z,75.20
2019-03-01T13:06:46.012Z,75.40
2019-03-01T13:09:17.339Z,74.80
2019-03-01T13:11:48.632Z,75.70
2019-03-01T13:14:20.057Z,74.60
2019-03-01T13:16:50.437Z,75.10
2019-03-01T13:19:23.298Z,74.80
2019-03-01T13:21:55.554Z,75.30
2019-03-01T13:24:29.351Z,75.70
2019-03-01T13:27:02.330Z,74.90
2019-03-01T13:29:36.903Z,75.80
2019-03-01T13:32:09.122Z,75.50
2019-03-01T13:34:40.131Z,75.10
2019-03-01T13:37:15.201Z,75.40
2019-03-01T13:39:44.905Z,74.40
2019-03-01T13:42:14.201Z,74.00
2019-03-01T13:44:44.350Z,74.20
2019-03-01T13:47:14.968Z,74.80
2019-03-01T13:49:45.232Z,74.60
2019-03-01T13:52:16.604Z,74.90
2019-03-01T13:54:47.055Z,75.50
2019-03-01T13:57:17.042Z,75.20
2019-03-01T13:59:46.697Z,75.60
2019-03-01T14:02:17.122Z,75.70
2019-03-01T14:04:47.415Z,75.90
2019-03-01T14:07:17.897Z,76.20
2019-03-01T14:09:47.499Z,76.10
2019-03-01T14:12:20.214Z,76.60
2019-03-01T14:14:49.936Z,76.80
2019-03-01T14:17:24.234Z,76.50
2019-03-01T14:19:53.211Z,77.40
2019-03-01T14:22:24.076Z,77.80
2019-03-01T14:24:55.895Z,78.70
2019-03-01T14:27:26.354Z,78.90
2019-03-01T14:29:58.498Z,78.90
2019-03-01T14:32:28.831Z,78.40
2019-03-01T14:35:02.106Z,77.40
2019-03-01T14:37:32.373Z,77.20
2019-03-01T14:40:14.890Z,77.20
2019-03-01T14:42:47.498Z,76.00
2019-03-01T14:45:19.929Z,74.30
2019-03-01T14:47:52.539Z,74.40
2019-03-01T14:50:24.925Z,72.90
2019-03-01T14:52:58.437Z,69.40
2019-03-01T14:55:32.594Z,68.70
2019-03-01T14:58:09.888Z,67.40
2019-03-01T15:01:09.613Z,67.70
2019-03-01T15:03:42.766Z,65.70
2019-03-01T15:06:15.399Z,63.80
2019-03-01T15:08:45.416Z,62.20
2019-03-01T15:11:20.902Z,62.10
2019-03-01T15:13:52.866Z,62.60
2019-03-01T15:16:22.483Z,60.30
2019-03-01T15:18:55.703Z,60.80
2019-03-01T15:21:26.539Z,61.20
2019-03-01T15:24:00.430Z,61.10
2019-03-01T15:26:30.405Z,61.30
2019-03-01T15:29:01.459Z,62.60
2019-03-01T15:31:33.692Z,62.10
2019-03-01T15:34:05.051Z,62.40
2019-03-01T15:36:37.590Z,62.10
2019-03-01T15:39:09.858Z,62.50
2019-03-01T15:41:42.134Z,63.20
2019-03-01T15:44:12.150Z,63.80
2019-03-01T15:46:41.867Z,64.70
2019-03-01T15:49:15.229Z,65.30
2019-03-01T15:51:45.523Z,66.60
2019-03-01T15:54:20.182Z,66.80
2019-03-01T15:56:53.227Z,67.50
2019-03-01T15:59:23.226Z,66.90
2019-03-01T16:01:53.522Z,66.40
2019-03-01T16:04:24.985Z,66.00
2019-03-01T16:06:56.523Z,64.60
2019-03-01T16:09:27.082Z,64.80
2019-03-01T16:11:57.615Z,65.10
2019-03-01T16:14:27.775Z,65.60
2019-03-01T16:16:58.886Z,65.70
2019-03-01T16:19:29.026Z,65.50
2019-03-01T16:22:00.990Z,65.20
2019-03-01T16:24:32.211Z,64.30
2019-03-01T16:27:02.665Z,65.10
2019-03-01T16:29:33.211Z,65.30
2019-03-01T16:32:07.971Z,65.10
2019-03-01T16:34:41.297Z,65.30
2019-03-01T16:37:12.078Z,65.60
2019-03-01T16:39:42.535Z,64.80
2019-03-01T16:42:14.537Z,65.10
2019-03-01T16:44:50.359Z,65.40
2019-03-01T16:47:20.497Z,65.80
2019-03-01T16:49:50.204Z,66.80
2019-03-01T16:52:22.648Z,66.20
2019-03-01T16:54:54.799Z,66.20
2019-03-01T16:57:24.893Z,66.60
2019-03-01T16:59:54.890Z,66.40
2019-03-01T17:02:24.840Z,66.70
2019-03-01T17:04:55.428Z,66.50
2019-03-01T17:07:28.660Z,67.00
2019-03-01T17:10:02.065Z,67.10
2019-03-01T17:12:32.147Z,67.40
2019-03-01T17:15:02.285Z,67.70
2019-03-01T17:17:33.104Z,67.90
2019-03-01T17:20:04.082Z,67.70
2019-03-01T17:22:34.615Z,68.00
2019-03-01T17:25:04.488Z,67.10
2019-03-01T17:27:36.728Z,68.20
2019-03-01T17:30:11.124Z,68.70
2019-03-01T17:32:41.114Z,69.00
2019-03-01T17:35:11.420Z,69.30
2019-03-01T17:37:41.066Z,69.70
2019-03-01T17:40:11.792Z,71.00
2019-03-01T17:42:42.313Z,72.40
2019-03-01T17:45:17.302Z,72.10
2019-03-01T17:47:46.281Z,73.20
2019-03-01T17:50:17.124Z,73.20
2019-03-01T17:52:46.951Z,72.30
2019-03-01T17:55:17.853Z,72.60
2019-03-01T17:57:50.199Z,73.00
2019-03-01T18:00:25.403Z,73.50
2019-03-01T18:02:56.299Z,73.50
2019-03-01T18:05:27.790Z,73.90
2019-03-01T18:07:59.972Z,74.30
2019-03-01T18:10:35.004Z,74.60
2019-03-01T18:13:05.831Z,73.00
2019-03-01T18:15:36.113Z,72.80
2019-03-01T18:18:08.976Z,73.90
2019-03-01T18:20:40.771Z,72.10
2019-03-01T18:23:11.995Z,72.40
2019-03-01T18:25:42.546Z,70.80
2019-03-01T18:28:13.847Z,71.20
2019-03-01T18:30:45.143Z,72.00
2019-03-01T18:33:21.231Z,72.30
2019-03-01T18:35:55.909Z,73.10
2019-03-01T18:38:27.709Z,73.60
2019-03-01T18:40:57.809Z,72.30
2019-03-01T18:43:27.806Z,72.50
2019-03-01T18:45:58.356Z,72.50
2019-03-01T18:48:28.928Z,71.50
2019-03-01T18:50:59.996Z,73.40
2019-03-01T18:53:32.950Z,73.50
2019-03-01T18:56:03.750Z,73.10
2019-03-01T18:58:34.433Z,72.00
2019-03-01T19:01:07.719Z,72.10
2019-03-01T19:03:40.166Z,71.70
2019-03-01T19:06:12.798Z,71.80
2019-03-01T19:08:42.302Z,71.50
2019-03-01T19:11:12.529Z,69.20
2019-03-01T19:13:44.600Z,69.20
2019-03-01T19:16:14.217Z,69.50
2019-03-01T19:18:48.185Z,69.80
2019-03-01T19:21:17.327Z,70.40
2019-03-01T19:23:48.964Z,70.30
2019-03-01T19:26:18.854Z,70.10
2019-03-01T19:28:48.382Z,69.70
2019-03-01T19:31:18.019Z,69.70
2019-03-01T19:33:49.215Z,69.10
2019-03-01T19:36:20.253Z,69.00
2019-03-01T19:38:51.168Z,69.20
2019-03-01T19:41:24.014Z,69.60
2019-03-01T19:43:57.632Z,70.10
2019-03-01T19:46:27.117Z,69.70
2019-03-01T19:48:59.088Z,69.70
2019-03-01T19:51:29.610Z,68.30
2019-03-01T19:54:01.140Z,67.60
2019-03-01T19:56:32.006Z,67.40
2019-03-01T19:59:02.293Z,67.60
2019-03-01T20:01:32.162Z,68.10
2019-03-01T20:04:01.821Z,68.20
2019-03-01T20:06:32.112Z,69.10
2019-03-01T20:09:05.321Z,69.10
2019-03-01T20:11:35.964Z,68.70
2019-03-01T20:14:07.369Z,67.30
2019-03-01T20:16:36.913Z,66.10
2019-03-01T20:19:07.761Z,66.10
2019-03-01T20:21:41.345Z,66.50
2019-03-01T20:24:10.892Z,66.70
2019-03-01T20:26:41.708Z,67.20
2019-03-01T20:29:14.099Z,67.60
2019-03-01T20:31:47.834Z,67.80
2019-03-01T20:34:19.019Z,67.00
2019-03-01T20:36:49.634Z,66.90
2019-03-01T20:39:20.489Z,67.20
2019-03-01T20:41:50.450Z,67.80
2019-03-01T20:44:22.961Z,68.20
2019-03-01T20:46:54.349Z,68.30
2019-03-01T20:49:24.228Z,68.20
2019-03-01T20:51:54.718Z,68.40
2019-03-01T20:54:25.693Z,69.20
2019-03-01T20:56:57.445Z,69.00
2019-03-01T20:59:29.969Z,70.00
2019-03-01T21:01:59.556Z,70.70
2019-03-01T21:04:29.866Z,70.60
2019-03-01T21:06:59.745Z,70.80
2019-03-01T21:09:32.147Z,70.80
2019-03-01T21:12:02.890Z,71.00
2019-03-01T21:14:32.935Z,71.10
2019-03-01T21:17:02.778Z,71.60
2019-03-01T21:19:33.650Z,71.70
2019-03-01T21:22:04.720Z,71.60
2019-03-01T21:24:36.019Z,71.60
2019-03-01T21:27:05.482Z,71.40
2019-03-01T21:29:35.392Z,71.20
2019-03-01T21:32:06.019Z,70.90
2019-03-01T21:34:39.360Z,71.10
2019-03-01T21:37:10.496Z,71.50
2019-03-01T21:39:40.815Z,71.40
2019-03-01T21:42:16.908Z,71.20
2019-03-01T21:44:46.750Z,71.00
2019-03-01T21:47:16.322Z,70.90
2019-03-01T21:49:46.737Z,71.00
2019-03-01T21:52:18.833Z,70.30
2019-03-01T21:54:52.075Z,70.50
2019-03-01T21:57:21.603Z,70.70
2019-03-01T21:59:52.518Z,71.10
2019-03-01T22:02:25.327Z,71.20
2019-03-01T22:04:56.868Z,70.80
2019-03-01T22:07:27.108Z,70.90
2019-03-01T22:09:59.624Z,70.30
2019-03-01T22:12:29.696Z,70.70
2019-03-01T22:15:00.040Z,70.10
2019-03-01T22:17:33.595Z,70.50
2019-03-01T22:20:05.734Z,70.40
2019-03-01T22:22:37.851Z,70.70
2019-03-01T22:25:13.448Z,70.90
2019-03-01T22:27:43.820Z,71.20
2019-03-01T22:30:23.018Z,72.20
2019-03-01T22:32:54.412Z,71.40
2019-03-01T22:35:24.463Z,71.20
2019-03-01T22:37:54.220Z,71.00
2019-03-01T22:40:27.910Z,71.50
2019-03-01T22:42:59.016Z,70.60
2019-03-01T22:45:31.442Z,71.00
2019-03-01T22:48:01.698Z,71.10
2019-03-01T22:50:34.065Z,71.10
2019-03-01T22:53:03.253Z,71.00
2019-03-01T22:55:37.636Z,71.30
2019-03-01T22:58:07.967Z,71.00
2019-03-01T23:01:12.460Z,71.40
2019-03-01T23:03:44.787Z,70.30
2019-03-01T23:06:15.591Z,70.00
2019-03-01T23:08:45.265Z,69.90
2019-03-01T23:11:23.337Z,69.20
2019-03-01T23:13:55.776Z,69.50
2019-03-01T23:16:25.046Z,69.30
2019-03-01T23:18:57.226Z,69.40
2019-03-01T23:21:27.693Z,68.70
2019-03-01T23:23:59.702Z,68.60
2019-03-01T23:26:31.024Z,69.30
2019-03-01T23:29:01.789Z,68.70
2019-03-01T23:31:31.453Z,68.20
2019-03-01T23:34:03.652Z,68.70
2019-03-01T23:36:35.659Z,68.60
2019-03-01T23:39:11.346Z,68.40
2019-03-01T23:41:46.046Z,68.40
2019-03-01T23:44:15.573Z,68.50
2019-03-01T23:46:48.280Z,68.40
2019-03-01T23:49:20.588Z,68.00
2019-03-01T23:51:52.043Z,68.10
2019-03-01T23:54:24.855Z,68.30
2019-03-01T23:56:55.284Z,68.40
2019-03-01T23:59:26.646Z,68.50
